Time;durP1;ratioP1;P1;durP2;ratioP2;P2;SDS_P1;SDS_P2;PMS_P1;PMS_P2;Temp;Humidity;BMP_temperature;BMP_pressure;BME280_temperature;BME280_humidity;BME280_pressure;Samples;Min_cycle;Max_cycle;Signal;HPM_P1;HPM_P2
2022/08/31 00:04:40;;;;;;;12.47;7.77;;;;;;;18.87;100.00;98956.72;5016249;28;20235;-54
2022/08/31 00:07:07;;;;;;;13.63;8.03;;;;;;;18.87;100.00;98954.09;5021885;28;20254;-55
2022/08/31 00:09:33;;;;;;;9.60;7.13;;;;;;;18.79;100.00;98948.97;5017914;28;20220;-54
2022/08/31 00:12:02;;;;;;;14.07;8.07;;;;;;;18.77;100.00;98943.84;5019878;28;20232;-53
2022/08/31 00:14:29;;;;;;;11.37;8.03;;;;;;;18.74;100.00;98952.19;5017877;28;20560;-55
2022/08/31 00:16:56;;;;;;;16.90;8.07;;;;;;;18.73;100.00;98946.09;5019219;28;20242;-54
2022/08/31 00:19:23;;;;;;;14.07;8.10;;;;;;;18.76;100.00;98939.56;5016297;28;20225;-54
2022/08/31 00:21:50;;;;;;;12.03;8.10;;;;;;;18.72;100.00;98947.09;5017096;28;20237;-56
2022/08/31 00:24:16;;;;;;;12.27;7.90;;;;;;;18.72;100.00;98952.38;5018038;28;20222;-52
2022/08/31 00:26:43;;;;;;;13.50;8.60;;;;;;;18.78;100.00;98944.69;5016344;28;20223;-53
2022/08/31 00:29:12;;;;;;;10.53;7.70;;;;;;;18.76;100.00;98947.50;5020098;28;20582;-55
2022/08/31 00:31:39;;;;;;;11.10;8.00;;;;;;;18.75;100.00;98948.53;5015096;28;20238;-55
2022/08/31 00:34:06;;;;;;;12.57;8.10;;;;;;;18.74;100.00;98947.72;5002473;28;20272;-55
2022/08/31 00:36:33;;;;;;;10.43;7.50;;;;;;;18.73;100.00;98943.44;4998761;28;20246;-54
2022/08/31 00:39:00;;;;;;;13.00;7.80;;;;;;;18.54;100.00;98937.06;5019320;28;20698;-54
2022/08/31 00:41:30;;;;;;;13.50;7.80;;;;;;;18.58;100.00;98940.13;4998733;28;20223;-52
2022/08/31 00:43:58;;;;;;;10.00;7.47;;;;;;;18.49;100.00;98936.00;5000700;28;20692;-52
2022/08/31 00:46:30;;;;;;;12.87;6.83;;;;;;;18.46;100.00;98939.84;4994944;28;20230;-52
2022/08/31 00:49:03;;;;;;;12.13;7.43;;;;;;;18.45;100.00;98938.22;5017674;28;20241;-55
2022/08/31 00:51:32;;;;;;;12.20;6.97;;;;;;;18.42;100.00;98938.59;4998565;28;20225;-52
2022/08/31 00:54:00;;;;;;;10.60;7.53;;;;;;;18.44;100.00;98944.53;4998663;28;20229;-54
2022/08/31 00:56:30;;;;;;;14.90;7.07;;;;;;;18.41;100.00;98948.34;5000274;28;20225;-54
2022/08/31 00:58:58;;;;;;;10.27;6.17;;;;;;;18.41;100.00;98952.84;5019504;28;20233;-53
2022/08/31 01:01:28;;;;;;;9.30;6.60;;;;;;;18.42;100.00;98944.69;5017820;28;20224;-54
2022/08/31 01:03:55;;;;;;;15.63;6.93;;;;;;;18.39;100.00;98941.63;5001086;28;20564;-55
2022/08/31 01:06:22;;;;;;;8.07;5.67;;;;;;;18.39;100.00;98941.63;5016881;28;20642;-54
2022/08/31 01:08:50;;;;;;;15.70;6.87;;;;;;;18.41;100.00;98944.91;4996556;28;20335;-53
2022/08/31 01:11:19;;;;;;;11.03;5.57;;;;;;;18.42;100.00;98949.97;5018033;28;20219;-54
2022/08/31 01:13:47;;;;;;;10.07;5.93;;;;;;;18.38;100.00;98948.72;4997338;28;20603;-54
2022/08/31 01:16:18;;;;;;;9.50;6.07;;;;;;;18.37;100.00;98949.75;5018913;28;20288;-52
2022/08/31 01:18:47;;;;;;;8.53;6.17;;;;;;;18.35;100.00;98946.47;5013180;28;20224;-54
2022/08/31 01:21:24;;;;;;;10.40;5.53;;;;;;;18.30;100.00;98946.25;5016135;28;20772;-55
2022/08/31 01:23:56;;;;;;;7.80;5.40;;;;;;;18.28;100.00;98937.69;5013853;28;20245;-56
2022/08/31 01:26:26;;;;;;;9.27;5.93;;;;;;;18.30;100.00;98933.03;5017270;28;20676;-56
2022/08/31 01:28:57;;;;;;;9.50;5.87;;;;;;;18.25;100.00;98938.91;4999515;28;20233;-53
2022/08/31 01:31:27;;;;;;;9.17;5.87;;;;;;;18.27;100.00;98936.06;4993487;28;20226;-55
2022/08/31 01:33:55;;;;;;;8.77;5.90;;;;;;;18.28;100.00;98932.41;5016654;28;20226;-55
2022/08/31 01:36:22;;;;;;;11.10;5.63;;;;;;;18.29;100.00;98934.03;5000872;28;20805;-52
2022/08/31 01:38:49;;;;;;;9.23;5.83;;;;;;;18.24;100.00;98926.72;5018021;28;20230;-54
2022/08/31 01:41:17;;;;;;;9.30;5.83;;;;;;;18.23;100.00;98932.16;5017941;28;20249;-54
2022/08/31 01:43:44;;;;;;;7.33;5.57;;;;;;;18.21;100.00;98928.91;4995567;28;20247;-54
2022/08/31 01:46:13;;;;;;;8.93;5.40;;;;;;;18.21;100.00;98927.09;5016245;28;20582;-51
2022/08/31 01:48:41;;;;;;;6.50;4.97;;;;;;;18.18;100.00;98924.84;5007307;28;20688;-53
2022/08/31 01:51:09;;;;;;;7.63;5.30;;;;;;;18.18;100.00;98918.72;5000775;28;20701;-52
2022/08/31 01:53:36;;;;;;;7.20;5.10;;;;;;;18.17;100.00;98925.00;4995291;28;20313;-55
2022/08/31 01:56:04;;;;;;;7.70;5.00;;;;;;;18.18;100.00;98929.28;4999983;28;20243;-51
2022/08/31 01:58:32;;;;;;;8.50;4.90;;;;;;;18.18;100.00;98922.19;4996711;28;20228;-54
2022/08/31 02:01:31;;;;;;;10.63;5.60;;;;;;;18.19;100.00;98920.34;5001466;28;20233;-55
2022/08/31 02:03:58;;;;;;;10.93;5.37;;;;;;;18.18;100.00;98919.56;5016096;28;20240;-51
2022/08/31 02:06:25;;;;;;;6.00;4.57;;;;;;;18.15;100.00;98919.94;5011694;28;20750;-54
2022/08/31 02:08:52;;;;;;;5.50;4.37;;;;;;;18.12;100.00;98918.47;5000121;28;20246;-52
2022/08/31 02:11:37;;;;;;;7.03;4.73;;;;;;;18.12;100.00;98912.41;5016074;28;20714;-55
2022/08/31 02:14:06;;;;;;;5.87;4.50;;;;;;;18.07;100.00;98904.22;4999925;28;20228;-52
2022/08/31 02:16:33;;;;;;;5.87;3.67;;;;;;;18.00;100.00;98905.00;4998504;28;20227;-55
2022/08/31 02:19:00;;;;;;;6.10;3.93;;;;;;;18.02;100.00;98896.06;4999633;28;20237;-52
2022/08/31 02:21:27;;;;;;;5.07;3.90;;;;;;;18.02;100.00;98891.59;5013269;28;20233;-52
2022/08/31 02:23:54;;;;;;;7.47;4.00;;;;;;;18.02;100.00;98882.88;4998393;28;20768;-53
2022/08/31 02:26:21;;;;;;;7.40;4.30;;;;;;;17.96;100.00;98887.06;4998450;28;20231;-52
2022/08/31 02:28:48;;;;;;;6.60;3.87;;;;;;;17.96;100.00;98884.44;5015721;28;20247;-52
2022/08/31 02:31:17;;;;;;;7.27;4.20;;;;;;;17.91;100.00;98886.84;4999965;28;20225;-55
2022/08/31 02:33:51;;;;;;;5.30;4.10;;;;;;;17.84;100.00;98884.97;4991941;28;20314;-51
2022/08/31 02:36:20;;;;;;;7.17;4.20;;;;;;;17.83;100.00;98883.31;4998590;28;20226;-53
2022/08/31 02:38:47;;;;;;;4.60;3.77;;;;;;;17.79;100.00;98884.72;5018438;28;20232;-55
2022/08/31 02:41:16;;;;;;;7.03;4.20;;;;;;;17.78;100.00;98879.59;5000157;28;20233;-53
2022/08/31 02:43:43;;;;;;;8.07;4.20;;;;;;;17.75;100.00;98880.81;4995944;28;20318;-54
2022/08/31 02:46:11;;;;;;;4.70;3.77;;;;;;;17.63;100.00;98882.34;4997379;28;20692;-51
2022/08/31 02:48:45;;;;;;;4.27;3.60;;;;;;;17.62;100.00;98888.63;4996877;28;20237;-52
2022/08/31 02:51:16;;;;;;;6.07;3.77;;;;;;;17.59;100.00;98883.72;5000617;28;20232;-53
2022/08/31 02:53:46;;;;;;;6.17;3.60;;;;;;;17.55;100.00;98870.91;4998016;28;20730;-52
2022/08/31 02:56:14;;;;;;;5.23;3.43;;;;;;;17.54;100.00;98871.09;5002368;28;20348;-54
2022/08/31 02:58:41;;;;;;;5.63;3.93;;;;;;;17.49;100.00;98870.88;4996845;28;20273;-52
2022/08/31 03:01:08;;;;;;;7.53;3.57;;;;;;;17.41;100.00;98862.06;4998405;28;20605;-54
2022/08/31 03:03:36;;;;;;;5.53;3.60;;;;;;;17.37;100.00;98865.25;4997526;28;20226;-52
2022/08/31 03:06:05;;;;;;;7.00;3.63;;;;;;;17.37;100.00;98867.91;5001553;28;20237;-52
2022/08/31 03:08:31;;;;;;;5.30;4.13;;;;;;;17.33;100.00;98864.84;5001368;28;20225;-54
2022/08/31 03:11:00;;;;;;;6.47;3.60;;;;;;;17.32;100.00;98857.09;4999203;28;20229;-51
2022/08/31 03:13:28;;;;;;;4.77;3.27;;;;;;;17.24;100.00;98855.41;5016762;28;20249;-52
2022/08/31 03:15:55;;;;;;;3.70;3.27;;;;;;;17.19;100.00;98857.81;5023552;28;21104;-51
2022/08/31 03:18:22;;;;;;;8.60;4.20;;;;;;;17.16;100.00;98861.63;5000741;28;20634;-53
2022/08/31 03:20:50;;;;;;;6.13;4.03;;;;;;;17.12;100.00;98852.44;5004341;28;20248;-52
2022/08/31 03:23:18;;;;;;;4.17;3.37;;;;;;;17.10;100.00;98851.81;5021464;28;20776;-54
2022/08/31 03:25:46;;;;;;;4.23;3.60;;;;;;;17.07;100.00;98853.03;5000732;28;20234;-51
2022/08/31 03:28:14;;;;;;;4.10;3.63;;;;;;;17.03;100.00;98848.28;5020940;28;20287;-51
2022/08/31 03:30:45;;;;;;;4.60;3.60;;;;;;;17.03;100.00;98845.66;4998862;28;20241;-51
2022/08/31 03:33:12;;;;;;;8.00;3.73;;;;;;;17.04;100.00;98840.22;5014672;28;20674;-51
2022/08/31 03:35:43;;;;;;;9.33;4.10;;;;;;;17.04;100.00;98828.81;4999096;28;20244;-53
2022/08/31 03:38:11;;;;;;;5.20;3.60;;;;;;;17.02;100.00;98831.66;5002373;28;20323;-51
2022/08/31 03:40:40;;;;;;;6.47;4.00;;;;;;;16.93;100.00;98811.66;5012795;28;20225;-54
2022/08/31 03:43:10;;;;;;;5.10;3.80;;;;;;;16.85;100.00;98811.78;5001455;28;21002;-54
2022/08/31 03:45:40;;;;;;;4.83;3.40;;;;;;;16.82;100.00;98810.34;4998951;28;20571;-54
2022/08/31 03:48:09;;;;;;;6.03;3.53;;;;;;;16.73;100.00;98803.56;5002147;28;20237;-51
2022/08/31 03:50:37;;;;;;;3.23;2.93;;;;;;;16.65;100.00;98786.84;5000565;28;20316;-53
2022/08/31 03:53:11;;;;;;;4.33;3.37;;;;;;;16.60;99.01;98783.97;5002503;28;20727;-53
2022/08/31 03:56:02;;;;;;;5.93;3.23;;;;;;;16.62;99.18;98766.16;5018314;28;20710;-54
2022/08/31 03:58:31;;;;;;;5.33;3.13;;;;;;;16.59;98.86;98777.06;5000459;28;20642;-53
2022/08/31 04:01:00;;;;;;;4.73;3.17;;;;;;;16.57;96.69;98786.97;5003573;28;20235;-54
2022/08/31 04:03:59;;;;;;;5.53;3.30;;;;;;;16.51;100.00;98798.25;4973940;28;20237;-54
2022/08/31 04:07:03;;;;;;;5.17;3.30;;;;;;;16.42;100.00;98796.72;5018103;28;20228;-52
2022/08/31 04:09:59;;;;;;;6.37;3.67;;;;;;;16.34;100.00;98801.09;5017958;28;20236;-54
2022/08/31 04:12:47;;;;;;;3.17;2.87;;;;;;;16.33;100.00;98814.47;4987469;28;20278;-54
2022/08/31 04:15:33;;;;;;;8.20;3.60;;;;;;;16.27;100.00;98810.72;5000999;28;20281;-54
2022/08/31 04:18:19;;;;;;;4.17;2.93;;;;;;;16.23;100.00;98801.56;5019175;28;20304;-52
2022/08/31 04:20:48;;;;;;;4.93;3.30;;;;;;;16.21;100.00;98806.19;4998928;28;20399;-52
2022/08/31 04:23:14;;;;;;;2.90;2.57;;;;;;;16.19;100.00;98809.00;5002511;28;20221;-51
2022/08/31 04:25:51;;;;;;;9.73;2.70;;;;;;;16.25;100.00;98809.28;5000532;28;20246;-51
2022/08/31 04:28:19;;;;;;;3.90;2.90;;;;;;;16.25;98.34;98809.28;5002814;28;20306;-51
2022/08/31 04:30:47;;;;;;;3.23;2.37;;;;;;;16.27;98.86;98802.81;5016351;28;20678;-51
2022/08/31 04:33:16;;;;;;;4.87;2.20;;;;;;;16.26;95.88;98808.28;5004205;28;20307;-53
2022/08/31 04:35:43;;;;;;;3.10;2.47;;;;;;;16.29;96.49;98824.53;5013252;28;20257;-54
2022/08/31 04:38:10;;;;;;;3.00;2.13;;;;;;;16.25;98.80;98838.25;5020100;28;20307;-54
2022/08/31 04:40:37;;;;;;;5.57;2.70;;;;;;;16.23;99.11;98864.75;5016124;28;20221;-54
2022/08/31 04:43:06;;;;;;;5.00;3.27;;;;;;;16.22;100.00;98868.41;5017094;28;20232;-52
2022/08/31 04:45:34;;;;;;;4.10;3.00;;;;;;;16.18;100.00;98875.03;4999749;28;20224;-51
2022/08/31 04:48:00;;;;;;;5.13;3.43;;;;;;;16.18;100.00;98886.38;5017092;28;20235;-53
2022/08/31 04:50:27;;;;;;;7.73;3.37;;;;;;;16.18;100.00;98883.75;5015678;28;20223;-54
2022/08/31 04:53:06;;;;;;;4.83;3.27;;;;;;;16.16;100.00;98877.84;5001570;28;20422;-53
2022/08/31 04:55:32;;;;;;;4.70;3.00;;;;;;;16.15;100.00;98878.00;5017798;28;20707;-53
2022/08/31 04:57:59;;;;;;;4.53;3.40;;;;;;;16.12;100.00;98871.31;5000414;28;20239;-52
2022/08/31 05:00:26;;;;;;;9.30;3.87;;;;;;;16.09;100.00;98877.75;4998464;28;20231;-55
2022/08/31 05:03:13;;;;;;;6.03;3.70;;;;;;;16.04;100.00;98895.91;5019296;28;20235;-54
2022/08/31 05:05:41;;;;;;;6.27;3.40;;;;;;;16.05;100.00;98896.72;4999509;28;20260;-52
2022/08/31 05:08:09;;;;;;;4.83;3.47;;;;;;;16.06;100.00;98907.06;5008849;28;20239;-51
2022/08/31 05:10:35;;;;;;;4.83;3.73;;;;;;;16.08;100.00;98906.91;5015569;28;20775;-53
2022/08/31 05:13:04;;;;;;;5.90;3.50;;;;;;;16.07;100.00;98907.91;5000204;28;20242;-51
2022/08/31 05:15:31;;;;;;;6.47;3.83;;;;;;;16.01;100.00;98900.72;4998406;28;20332;-51
2022/08/31 05:17:59;;;;;;;5.57;3.40;;;;;;;16.01;100.00;98912.03;5001389;28;20237;-53
2022/08/31 05:20:27;;;;;;;4.00;3.60;;;;;;;15.91;100.00;98906.22;5012281;28;20278;-54
2022/08/31 05:22:55;;;;;;;9.13;3.83;;;;;;;15.89;100.00;98905.59;5017082;28;20233;-54
2022/08/31 05:25:22;;;;;;;4.40;3.53;;;;;;;15.88;100.00;98910.03;4996955;28;20233;-51
2022/08/31 05:27:49;;;;;;;5.70;3.30;;;;;;;15.93;100.00;98914.75;4999811;28;20230;-53
2022/08/31 05:30:16;;;;;;;6.70;3.53;;;;;;;15.89;100.00;98908.25;5000020;28;20573;-53
2022/08/31 05:33:01;;;;;;;4.70;3.50;;;;;;;15.88;100.00;98917.94;4998044;28;20239;-52
2022/08/31 05:35:30;;;;;;;7.03;4.33;;;;;;;15.94;100.00;98919.03;4997945;28;20602;-51
2022/08/31 05:37:56;;;;;;;7.87;3.80;;;;;;;16.05;100.00;98929.13;5013924;28;20301;-52
2022/08/31 05:40:24;;;;;;;4.67;3.80;;;;;;;16.01;100.00;98933.09;4998006;28;20591;-51
2022/08/31 05:42:51;;;;;;;4.77;3.50;;;;;;;16.02;100.00;98928.69;5001981;28;20351;-51
2022/08/31 05:45:19;;;;;;;5.53;3.40;;;;;;;16.04;100.00;98937.22;5001759;28;20224;-53
2022/08/31 05:47:47;;;;;;;4.23;3.00;;;;;;;15.99;100.00;98935.09;5001165;28;20329;-55
2022/08/31 05:50:14;;;;;;;5.17;3.50;;;;;;;16.00;100.00;98934.09;5000162;28;20351;-51
2022/08/31 05:52:43;;;;;;;3.50;3.20;;;;;;;16.06;100.00;98932.59;4998824;28;20311;-51
2022/08/31 05:55:11;;;;;;;6.50;3.17;;;;;;;16.08;100.00;98941.94;4999664;28;20240;-50
2022/08/31 05:57:39;;;;;;;4.23;3.17;;;;;;;16.11;100.00;98943.41;4998802;28;20761;-51
2022/08/31 06:00:09;;;;;;;3.50;2.90;;;;;;;16.14;100.00;98947.47;5001899;28;20233;-52
2022/08/31 06:02:39;;;;;;;3.60;2.97;;;;;;;16.12;100.00;98944.22;5014554;28;20243;-54
2022/08/31 06:05:08;;;;;;;5.77;3.20;;;;;;;16.20;100.00;98949.41;5002240;28;20247;-51
2022/08/31 06:07:34;;;;;;;5.97;2.97;;;;;;;16.23;100.00;98951.69;5014392;28;20225;-53
2022/08/31 06:10:06;;;;;;;3.73;3.10;;;;;;;16.15;100.00;98955.22;4999501;28;20241;-51
2022/08/31 06:12:33;;;;;;;5.47;3.03;;;;;;;16.12;100.00;98949.47;4996125;28;20240;-53
2022/08/31 06:15:04;;;;;;;5.30;3.00;;;;;;;16.11;100.00;98953.94;5001418;28;20270;-54
2022/08/31 06:17:31;;;;;;;7.00;2.97;;;;;;;16.15;100.00;98952.59;4997249;28;20299;-53
2022/08/31 06:19:58;;;;;;;3.23;2.93;;;;;;;16.15;100.00;98951.75;5001906;28;20705;-52
2022/08/31 06:22:25;;;;;;;3.77;3.20;;;;;;;16.20;100.00;98955.50;4996875;28;20588;-56
2022/08/31 06:24:54;;;;;;;3.60;3.30;;;;;;;16.16;100.00;98958.66;5007286;28;20357;-51
2022/08/31 06:27:23;;;;;;;4.87;3.70;;;;;;;16.09;100.00;98951.47;4996924;28;20225;-53
2022/08/31 06:29:52;;;;;;;8.10;3.90;;;;;;;16.14;100.00;98956.22;5015857;28;20306;-50
2022/08/31 06:32:20;;;;;;;4.97;3.60;;;;;;;16.20;100.00;98952.03;4997925;28;20288;-54
2022/08/31 06:34:57;;;;;;;4.60;4.00;;;;;;;16.28;100.00;98944.06;5016146;28;20227;-54
2022/08/31 06:38:02;;;;;;;7.50;3.83;;;;;;;16.36;100.00;98949.25;4999439;28;20247;-54
2022/08/31 06:40:48;;;;;;;5.53;3.90;;;;;;;16.35;100.00;98939.69;5014605;28;20242;-54
2022/08/31 06:43:49;;;;;;;4.77;3.80;;;;;;;16.35;100.00;98942.34;4999577;28;20239;-54
2022/08/31 06:46:32;;;;;;;5.53;3.93;;;;;;;16.44;100.00;98942.25;5001576;28;20220;-52
2022/08/31 06:49:09;;;;;;;7.43;3.70;;;;;;;16.52;100.00;98944.81;5018832;28;20236;-52
2022/08/31 06:51:37;;;;;;;5.00;3.63;;;;;;;16.56;100.00;98940.81;5015582;28;20233;-54
2022/08/31 06:54:05;;;;;;;6.73;4.20;;;;;;;16.63;100.00;98954.91;5002887;28;20220;-51
2022/08/31 06:56:51;;;;;;;4.83;3.53;;;;;;;16.73;100.00;98943.25;5019796;28;20243;-53
2022/08/31 06:59:47;;;;;;;4.00;3.60;;;;;;;16.77;100.00;98957.72;5016847;28;20350;-50
2022/08/31 07:02:28;;;;;;;5.87;4.20;;;;;;;16.84;100.00;98955.97;4998916;28;20232;-53
2022/08/31 07:04:55;;;;;;;4.43;3.70;;;;;;;16.93;100.00;98965.44;5003896;28;20235;-55
2022/08/31 07:07:22;;;;;;;7.27;4.37;;;;;;;17.01;100.00;98969.81;5002028;28;20233;-52
2022/08/31 07:09:50;;;;;;;5.17;4.67;;;;;;;17.08;100.00;98961.94;5003966;28;20313;-54
2022/08/31 07:12:17;;;;;;;7.00;4.10;;;;;;;17.10;100.00;98959.94;5020797;28;20247;-51
2022/08/31 07:14:45;;;;;;;5.83;4.00;;;;;;;17.21;100.00;98969.22;5017437;28;20229;-51
2022/08/31 07:17:13;;;;;;;5.73;3.80;;;;;;;17.33;100.00;98964.28;5019430;28;20243;-52
2022/08/31 07:19:40;;;;;;;5.77;3.90;;;;;;;17.51;100.00;98964.66;5015996;28;20701;-53
2022/08/31 07:22:08;;;;;;;4.77;3.53;;;;;;;17.61;98.41;98966.19;5005566;28;20247;-53
2022/08/31 07:24:36;;;;;;;6.23;3.93;;;;;;;17.73;97.85;98961.22;5016682;28;20238;-53
2022/08/31 07:27:21;;;;;;;4.43;3.03;;;;;;;17.88;95.16;98961.94;5017941;28;20243;-51
2022/08/31 07:29:53;;;;;;;6.03;3.30;;;;;;;17.94;95.08;98960.41;5002593;28;20683;-50
2022/08/31 07:32:22;;;;;;;7.40;3.50;;;;;;;17.95;94.07;98960.19;4998004;28;20228;-54
2022/08/31 07:34:50;;;;;;;3.40;3.10;;;;;;;17.98;95.01;98964.28;5004005;28;20256;-54
2022/08/31 07:43:21;;;;;;;4.43;3.00;;;;;;;18.22;92.30;98955.16;4998202;28;20226;-51
2022/08/31 07:45:48;;;;;;;7.13;3.60;;;;;;;18.24;92.66;98952.28;5004399;28;20260;-54
2022/08/31 07:48:22;;;;;;;4.03;3.60;;;;;;;18.30;92.14;98962.09;5000035;28;20233;-53
2022/08/31 07:50:57;;;;;;;6.60;4.00;;;;;;;18.45;90.82;98964.66;5003367;28;20296;-51
2022/08/31 07:53:46;;;;;;;3.90;3.37;;;;;;;18.47;90.65;98969.72;5000670;28;20240;-53
2022/08/31 07:56:43;;;;;;;5.70;4.00;;;;;;;18.63;91.12;98968.59;5002479;28;20643;-56
2022/08/31 07:59:22;;;;;;;5.30;3.47;;;;;;;18.71;89.63;98977.19;5002765;28;20244;-52
2022/08/31 08:01:54;;;;;;;7.57;4.00;;;;;;;18.72;87.74;98980.66;4999521;28;20709;-51
2022/08/31 08:04:24;;;;;;;4.23;3.23;;;;;;;18.85;87.89;98978.06;5014368;28;20954;-51
2022/08/31 08:07:11;;;;;;;3.70;3.40;;;;;;;18.97;87.97;98977.56;5019540;28;20313;-52
2022/08/31 08:10:08;;;;;;;4.80;4.00;;;;;;;19.15;87.73;98980.47;4999400;28;20688;-52
2022/08/31 08:13:04;;;;;;;4.50;4.10;;;;;;;19.38;89.17;98983.78;5000231;28;20280;-54
2022/08/31 08:15:42;;;;;;;7.33;3.93;;;;;;;19.51;88.44;98988.31;4998945;28;20283;-54
2022/08/31 08:18:28;;;;;;;4.17;3.77;;;;;;;19.61;85.63;98992.19;5015790;28;20280;-53
2022/08/31 08:21:00;;;;;;;4.87;3.70;;;;;;;19.66;86.46;98999.53;5004803;28;20233;-54
2022/08/31 08:23:27;;;;;;;4.10;3.70;;;;;;;19.79;89.00;99001.41;5003520;28;20302;-54
2022/08/31 08:26:10;;;;;;;5.17;4.07;;;;;;;19.83;89.25;98992.03;5022464;28;20242;-54
2022/08/31 08:29:04;;;;;;;4.97;4.00;;;;;;;19.91;88.10;98994.53;5011855;28;20245;-54
2022/08/31 08:31:32;;;;;;;5.27;4.20;;;;;;;20.04;84.94;99003.50;4998988;28;20318;-52
2022/08/31 08:33:59;;;;;;;4.53;3.70;;;;;;;20.13;82.42;99006.75;5016059;28;20755;-53
2022/08/31 08:36:34;;;;;;;7.70;3.83;;;;;;;20.23;82.06;98998.38;5011786;28;20233;-52
2022/08/31 08:39:05;;;;;;;4.17;3.60;;;;;;;20.36;80.63;99006.31;4996838;28;20691;-55
2022/08/31 08:41:34;;;;;;;4.60;3.67;;;;;;;20.57;81.02;99007.94;5013232;28;20222;-55
2022/08/31 08:44:04;;;;;;;8.13;4.00;;;;;;;20.57;80.45;99010.59;5018997;28;20282;-56
2022/08/31 08:46:38;;;;;;;4.47;3.27;;;;;;;20.85;81.27;99011.38;5005626;28;20354;-53
2022/08/31 08:49:15;;;;;;;4.80;4.20;;;;;;;20.39;83.18;99016.53;5009255;28;20236;-55
2022/08/31 08:51:46;;;;;;;5.50;4.10;;;;;;;20.59;82.90;99021.81;5005359;28;20234;-55
2022/08/31 08:54:20;;;;;;;4.50;3.70;;;;;;;20.74;79.73;99032.19;5025720;28;20357;-51
2022/08/31 08:56:48;;;;;;;5.80;3.90;;;;;;;20.89;78.60;99023.22;5009401;28;20703;-52
2022/08/31 08:59:18;;;;;;;4.33;3.50;;;;;;;21.08;78.45;99034.78;5008896;28;20322;-51
2022/08/31 09:01:52;;;;;;;6.17;3.53;;;;;;;21.25;77.13;99043.06;5008269;28;20236;-53
2022/08/31 09:04:40;;;;;;;5.17;3.60;;;;;;;21.27;76.70;99042.88;4998950;28;20239;-52
2022/08/31 09:07:41;;;;;;;5.07;3.80;;;;;;;21.41;74.89;99043.63;5023245;28;20775;-55
2022/08/31 09:10:18;;;;;;;8.27;4.17;;;;;;;21.36;78.75;99047.72;5027002;28;20216;-54
2022/08/31 09:12:56;;;;;;;7.70;4.00;;;;;;;21.28;80.25;99040.00;4999244;28;20231;-54
2022/08/31 09:15:50;;;;;;;5.90;4.17;;;;;;;21.52;81.42;99043.78;5019625;28;20233;-52
2022/08/31 09:18:39;;;;;;;7.60;3.83;;;;;;;21.63;79.79;99038.88;5002900;28;20235;-56
2022/08/31 09:21:20;;;;;;;5.80;3.93;;;;;;;21.68;75.11;99045.16;5007862;28;20230;-53
2022/08/31 09:23:54;;;;;;;6.47;4.60;;;;;;;21.62;74.31;99046.00;5007900;28;20348;-55
2022/08/31 09:26:26;;;;;;;5.77;3.77;;;;;;;21.74;76.38;99037.34;5029258;28;20236;-55
2022/08/31 09:29:04;;;;;;;6.67;4.03;;;;;;;21.63;74.88;99046.81;5024109;28;20237;-56
2022/08/31 09:31:36;;;;;;;4.50;3.97;;;;;;;21.77;80.03;99037.72;5015974;28;20320;-56
2022/08/31 09:34:07;;;;;;;7.13;4.20;;;;;;;21.57;75.13;99034.38;5025321;28;20224;-55
2022/08/31 09:36:39;;;;;;;4.33;3.80;;;;;;;21.60;76.72;99037.41;5023467;28;20312;-55
2022/08/31 09:39:29;;;;;;;4.90;4.00;;;;;;;21.31;72.38;99044.88;5027198;28;20225;-55
2022/08/31 09:42:02;;;;;;;5.07;4.33;;;;;;;21.06;70.05;99037.66;5027414;28;20316;-54
2022/08/31 09:44:33;;;;;;;4.60;3.37;;;;;;;20.57;71.05;99034.47;5023247;28;20247;-55
2022/08/31 09:47:04;;;;;;;7.63;4.00;;;;;;;20.94;70.80;99034.00;5026166;28;20232;-53
2022/08/31 09:49:35;;;;;;;5.67;4.03;;;;;;;20.99;72.55;99038.69;5021789;28;20246;-53
2022/08/31 09:55:12;;;;;;;4.63;3.83;;;;;;;21.06;73.28;99044.78;5024764;28;20768;-52
2022/08/31 09:55:20;;;;;;;4.40;4.00;;;;;;;20.79;72.82;99043.03;5026716;28;20869;-55
2022/08/31 09:57:52;;;;;;;7.47;4.37;;;;;;;21.14;75.98;99041.09;5025000;28;20232;-55
2022/08/31 10:00:31;;;;;;;5.57;4.10;;;;;;;21.45;71.81;99042.16;5023840;28;20229;-56
2022/08/31 10:03:10;;;;;;;5.10;4.30;;;;;;;21.32;74.54;99045.72;5021682;28;20314;-55
2022/08/31 10:05:41;;;;;;;5.00;3.63;;;;;;;21.66;71.96;99047.19;5020676;28;20244;-52
2022/08/31 10:08:22;;;;;;;4.40;4.00;;;;;;;21.71;67.77;99048.41;5026774;28;20604;-54
2022/08/31 10:10:51;;;;;;;5.50;3.80;;;;;;;21.82;69.74;99050.38;5021848;28;20238;-54
2022/08/31 10:13:24;;;;;;;6.33;3.80;;;;;;;21.76;69.36;99045.94;5018661;28;20254;-53
2022/08/31 10:15:56;;;;;;;7.60;4.17;;;;;;;21.57;71.08;99050.31;5024814;28;20233;-54
2022/08/31 10:18:32;;;;;;;5.77;3.70;;;;;;;21.74;70.13;99043.47;5018282;28;20235;-55
2022/08/31 10:21:06;;;;;;;6.23;3.90;;;;;;;21.66;69.42;99049.06;5018927;28;20234;-55
2022/08/31 10:23:40;;;;;;;4.13;3.73;;;;;;;21.76;68.16;99045.94;5020461;28;20240;-56
2022/08/31 10:26:16;;;;;;;4.17;3.73;;;;;;;21.72;69.17;99039.41;5021339;28;20255;-55
2022/08/31 10:28:49;;;;;;;4.87;4.37;;;;;;;21.77;68.82;99043.03;5019635;28;20226;-54
2022/08/31 10:31:22;;;;;;;6.77;4.17;;;;;;;21.05;72.85;99045.81;5025076;28;20232;-54
2022/08/31 10:36:44;;;;;;;6.57;5.00;;;;;;;20.63;75.16;99044.25;5024601;28;20227;-54
2022/08/31 10:39:23;;;;;;;6.43;4.43;;;;;;;20.71;74.68;99045.84;5009856;28;20231;-54
2022/08/31 10:41:52;;;;;;;5.33;4.23;;;;;;;20.43;75.97;99046.91;5020364;28;20332;-53
2022/08/31 10:44:27;;;;;;;6.50;4.67;;;;;;;20.47;76.75;99042.03;5025893;28;20587;-55
2022/08/31 10:46:58;;;;;;;9.63;7.07;;;;;;;20.76;75.25;99042.56;5019909;28;20263;-52
2022/08/31 10:49:26;;;;;;;9.17;4.40;;;;;;;20.69;75.70;99042.59;5022271;28;20221;-55
2022/08/31 10:52:01;;;;;;;5.53;4.57;;;;;;;20.49;78.12;99035.47;5025408;28;20226;-54
2022/08/31 10:54:40;;;;;;;4.83;4.33;;;;;;;20.79;76.40;99040.38;5025672;28;20241;-55
2022/08/31 10:57:22;;;;;;;6.93;4.20;;;;;;;20.74;76.00;99041.97;5029728;28;20244;-54
2022/08/31 11:00:01;;;;;;;5.13;4.47;;;;;;;20.77;78.64;99038.91;5024681;28;20261;-52
2022/08/31 11:03:02;;;;;;;5.57;4.07;;;;;;;20.75;77.01;99046.25;5024134;28;20246;-53
2022/08/31 11:05:34;;;;;;;8.20;4.90;;;;;;;20.73;77.69;99049.13;5025052;28;20243;-53
2022/08/31 11:08:13;;;;;;;7.00;4.80;;;;;;;20.67;79.27;99049.16;5026497;28;20388;-55
2022/08/31 11:10:47;;;;;;;5.13;4.60;;;;;;;20.48;81.40;99047.09;5022223;28;20252;-54
2022/08/31 11:13:37;;;;;;;6.23;4.80;;;;;;;20.52;81.28;99041.41;5024921;28;20324;-54
2022/08/31 11:16:19;;;;;;;7.00;5.20;;;;;;;20.52;84.80;99041.41;5021772;28;20239;-55
2022/08/31 11:19:14;;;;;;;7.60;4.90;;;;;;;20.58;80.69;99040.56;5029466;28;20239;-55
2022/08/31 11:22:17;;;;;;;7.83;4.60;;;;;;;20.55;79.71;99041.81;5020996;28;20296;-55
2022/08/31 11:25:07;;;;;;;5.57;4.97;;;;;;;20.52;82.10;99036.09;5021159;28;20754;-55
2022/08/31 11:27:38;;;;;;;8.03;4.90;;;;;;;20.21;82.76;99031.19;5002052;28;20261;-52
2022/08/31 11:30:15;;;;;;;5.47;4.97;;;;;;;20.24;80.79;99030.00;5029668;28;20235;-53
2022/08/31 11:32:48;;;;;;;7.97;5.17;;;;;;;20.27;85.27;99020.81;5024264;28;20231;-53
2022/08/31 11:35:15;;;;;;;7.10;4.73;;;;;;;20.23;83.56;99022.22;5029102;28;20692;-52
2022/08/31 11:37:51;;;;;;;6.30;5.57;;;;;;;20.39;83.65;99021.03;5026903;28;20236;-52
2022/08/31 11:40:51;;;;;;;8.63;5.03;;;;;;;20.51;82.70;99019.38;5032689;28;20308;-53
2022/08/31 11:43:43;;;;;;;7.27;5.10;;;;;;;20.50;83.73;99013.25;5028946;28;20736;-53
2022/08/31 11:47:00;;;;;;;6.30;4.93;;;;;;;20.39;81.27;99007.75;5026470;28;20236;-55
2022/08/31 11:49:48;;;;;;;6.40;4.93;;;;;;;20.31;82.93;99004.31;5021625;28;20244;-52
2022/08/31 11:52:31;;;;;;;6.47;5.10;;;;;;;20.71;81.49;99003.41;5026273;28;20755;-54
2022/08/31 11:55:19;;;;;;;7.00;4.67;;;;;;;20.55;80.29;98999.38;5023650;28;20224;-54
2022/08/31 11:58:14;;;;;;;7.40;5.73;;;;;;;20.55;83.82;98998.56;5018565;28;20236;-55
2022/08/31 12:00:43;;;;;;;6.53;4.67;;;;;;;20.89;80.70;98988.72;5023813;28;20239;-52
2022/08/31 12:03:36;;;;;;;8.43;5.00;;;;;;;21.06;78.97;98986.41;5026139;28;20233;-55
2022/08/31 12:06:04;;;;;;;8.00;5.00;;;;;;;21.00;81.48;98979.28;5026211;28;20603;-55
2022/08/31 12:08:50;;;;;;;5.23;4.73;;;;;;;21.48;77.05;98978.84;5025621;28;20271;-52